MSC Opera — H3FV — position and weather

sailwx.info

Track history (hours):
 
Tides and Currents Weather Stations Pressure Air Temp Water Temp Dewpoint Dewpoint Depression Visibility Wind Speed Wind Dir Waves Ship Positions

MSC Opera

Operator: Mediterranean Shipping Company

Last reported at 2020-Jan-16 17:30 UTC. Time now 2020-Jan-18 15:18 UTC.
Position N 38°21' E 015°38'.

Length 275 m; draft 6.8 m.

Type: Passenger vessel. MMSI: 357627000.

Date/timePositionNaut miles runAvg speedWind from/ knotsBaromVisibWave heightAir tempDewpointWater temp
2020-Jan-16 17:30N 38°21' E 015°38'1019.8
2020-Jan-16 17:00N 38°29' E 015°30'39318.7
2020-Jan-15 20:00N 43°13' E 009°30'918.5
2020-Jan-15 19:30N 43°22' E 009°26'2818.5
2020-Jan-15 18:00N 43°48' E 009°14'39 9.8
2020-Jan-15 14:00N 44°25' E 008°55'0 0.0
2020-Jan-15 12:27N 44°25' E 008°55'0 0.0
2020-Jan-15 11:29N 44°25' E 008°55'0 0.0
2020-Jan-15 09:29N 44°25' E 008°55'0 0.0
2020-Jan-15 08:28N 44°25' E 008°55'12 3.4
2020-Jan-15 05:01N 44°14' E 009°02'2013.1
2020-Jan-15 03:30N 43°55' E 009°10'1312.8
2020-Jan-15 02:30N 43°43' E 009°16'1716.8
2020-Jan-15 01:31N 43°27' E 009°23'380 8.4
2020-Jan-13 04:23N 39°10' E 003°11'919.7
2020-Jan-13 03:56N 39°05' E 003°01'20119.0
2020-Jan-12 17:22N 37°29' W 000°44'221 9.1
2020-Jan-11 17:00N 36°01' W 004°58'1817.8
2020-Jan-11 15:59N 35°59' W 005°20'65714.6
2020-Jan-09 19:00N 29°02' W 015°23'2717.8
2020-Jan-09 17:30N 28°44' W 015°45'30 9.9
2020-Jan-09 14:29N 28°28' W 016°14'0 0.0
2020-Jan-09 09:29N 28°28' W 016°14'0 0.0
2020-Jan-09 08:59N 28°28' W 016°14'0 0.0
2020-Jan-09 08:29N 28°28' W 016°14'  
2020-Jan-06 20:40N 36°02' W 005°18'2017.7
2020-Jan-06 19:30N 36°14' W 004°58'918.3
2020-Jan-06 19:00N 36°20' W 004°49'  
Track history (hours):
 
Tides and Currents Weather Stations Pressure Air Temp Water Temp Dewpoint Dewpoint Depression Visibility Wind Speed Wind Dir Waves Ship Positions

MSC Opera

Operator: Mediterranean Shipping Company

Last reported at 2020-Jan-16 17:30 UTC. Time now 2020-Jan-18 15:18 UTC.
Position N 38°21' E 015°38'.

Length 275 m; draft 6.8 m.

Type: Passenger vessel. MMSI: 357627000.

Date/timePositionNaut miles runAvg speedWind from/ knotsBaromVisibWave heightAir tempDewpointWater temp
2020-Jan-16 17:30N 38°21' E 015°38'1019.8
2020-Jan-16 17:00N 38°29' E 015°30'39318.7
2020-Jan-15 20:00N 43°13' E 009°30'918.5
2020-Jan-15 19:30N 43°22' E 009°26'2818.5
2020-Jan-15 18:00N 43°48' E 009°14'39 9.8
2020-Jan-15 14:00N 44°25' E 008°55'0 0.0
2020-Jan-15 12:27N 44°25' E 008°55'0 0.0
2020-Jan-15 11:29N 44°25' E 008°55'0 0.0
2020-Jan-15 09:29N 44°25' E 008°55'0 0.0
2020-Jan-15 08:28N 44°25' E 008°55'12 3.4
2020-Jan-15 05:01N 44°14' E 009°02'2013.1
2020-Jan-15 03:30N 43°55' E 009°10'1312.8
2020-Jan-15 02:30N 43°43' E 009°16'1716.8
2020-Jan-15 01:31N 43°27' E 009°23'380 8.4
2020-Jan-13 04:23N 39°10' E 003°11'919.7
2020-Jan-13 03:56N 39°05' E 003°01'20119.0
2020-Jan-12 17:22N 37°29' W 000°44'221 9.1
2020-Jan-11 17:00N 36°01' W 004°58'1817.8
2020-Jan-11 15:59N 35°59' W 005°20'65714.6
2020-Jan-09 19:00N 29°02' W 015°23'2717.8
2020-Jan-09 17:30N 28°44' W 015°45'30 9.9
2020-Jan-09 14:29N 28°28' W 016°14'0 0.0
2020-Jan-09 09:29N 28°28' W 016°14'0 0.0
2020-Jan-09 08:59N 28°28' W 016°14'0 0.0
2020-Jan-09 08:29N 28°28' W 016°14'  
2020-Jan-06 20:40N 36°02' W 005°18'2017.7
2020-Jan-06 19:30N 36°14' W 004°58'918.3
2020-Jan-06 19:00N 36°20' W 004°49'  

Dump ship's entire track history